sensor_id;sensor_type;location;lat;lon;timestamp;P1;durP1;ratioP1;P2;durP2;ratioP2
11453;SDS011;5783;55.174;61.310;2022-12-16T00:01:36;8.47;;;6.50;;
11453;SDS011;5783;55.174;61.310;2022-12-16T00:04:05;8.90;;;6.70;;
11453;SDS011;5783;55.174;61.310;2022-12-16T00:06:34;8.47;;;6.07;;
11453;SDS011;5783;55.174;61.310;2022-12-16T00:09:03;8.83;;;6.47;;
11453;SDS011;5783;55.174;61.310;2022-12-16T00:11:32;9.23;;;6.63;;
11453;SDS011;5783;55.174;61.310;2022-12-16T00:14:02;9.17;;;7.03;;
11453;SDS011;5783;55.174;61.310;2022-12-16T00:16:31;10.03;;;6.80;;
11453;SDS011;5783;55.174;61.310;2022-12-16T00:19:00;9.37;;;6.13;;
11453;SDS011;5783;55.174;61.310;2022-12-16T00:21:29;8.93;;;6.63;;
11453;SDS011;5783;55.174;61.310;2022-12-16T00:23:58;9.47;;;6.30;;
11453;SDS011;5783;55.174;61.310;2022-12-16T00:26:27;8.57;;;6.27;;
11453;SDS011;5783;55.174;61.310;2022-12-16T00:28:57;9.27;;;6.73;;
11453;SDS011;5783;55.174;61.310;2022-12-16T00:31:26;7.73;;;6.30;;
11453;SDS011;5783;55.174;61.310;2022-12-16T00:33:55;8.70;;;6.20;;
11453;SDS011;5783;55.174;61.310;2022-12-16T00:36:25;8.40;;;6.03;;
11453;SDS011;5783;55.174;61.310;2022-12-16T00:38:54;7.43;;;6.23;;
11453;SDS011;5783;55.174;61.310;2022-12-16T00:41:23;8.40;;;6.27;;
11453;SDS011;5783;55.174;61.310;2022-12-16T00:43:52;9.20;;;6.13;;
11453;SDS011;5783;55.174;61.310;2022-12-16T00:46:21;7.87;;;5.90;;
11453;SDS011;5783;55.174;61.310;2022-12-16T00:48:50;8.37;;;6.20;;
11453;SDS011;5783;55.174;61.310;2022-12-16T00:51:20;8.33;;;6.17;;
11453;SDS011;5783;55.174;61.310;2022-12-16T00:53:49;8.37;;;6.33;;
11453;SDS011;5783;55.174;61.310;2022-12-16T00:56:18;7.77;;;6.10;;
11453;SDS011;5783;55.174;61.310;2022-12-16T00:58:47;8.93;;;6.47;;
11453;SDS011;5783;55.174;61.310;2022-12-16T01:01:16;8.57;;;6.27;;
11453;SDS011;5783;55.174;61.310;2022-12-16T01:03:45;7.90;;;5.90;;
11453;SDS011;5783;55.174;61.310;2022-12-16T01:06:15;9.27;;;6.00;;
11453;SDS011;5783;55.174;61.310;2022-12-16T01:08:45;7.87;;;5.93;;
11453;SDS011;5783;55.174;61.310;2022-12-16T01:11:15;8.37;;;5.87;;
11453;SDS011;5783;55.174;61.310;2022-12-16T01:13:49;8.73;;;6.40;;
11453;SDS011;5783;55.174;61.310;2022-12-16T01:16:17;9.80;;;6.57;;
11453;SDS011;5783;55.174;61.310;2022-12-16T01:18:47;8.13;;;6.13;;
11453;SDS011;5783;55.174;61.310;2022-12-16T01:21:16;8.20;;;6.03;;
11453;SDS011;5783;55.174;61.310;2022-12-16T01:23:46;8.20;;;5.97;;
11453;SDS011;5783;55.174;61.310;2022-12-16T01:26:16;7.87;;;6.13;;
11453;SDS011;5783;55.174;61.310;2022-12-16T01:31:34;9.53;;;6.20;;
11453;SDS011;5783;55.174;61.310;2022-12-16T01:34:03;8.10;;;5.63;;
11453;SDS011;5783;55.174;61.310;2022-12-16T01:36:33;7.47;;;6.07;;
11453;SDS011;5783;55.174;61.310;2022-12-16T01:39:02;7.63;;;6.00;;
11453;SDS011;5783;55.174;61.310;2022-12-16T01:41:31;8.93;;;5.60;;
11453;SDS011;5783;55.174;61.310;2022-12-16T01:47:10;7.80;;;5.90;;
11453;SDS011;5783;55.174;61.310;2022-12-16T01:52:48;8.73;;;6.30;;
11453;SDS011;5783;55.174;61.310;2022-12-16T01:55:20;9.73;;;6.57;;
11453;SDS011;5783;55.174;61.310;2022-12-16T02:00:23;7.73;;;6.17;;
11453;SDS011;5783;55.174;61.310;2022-12-16T02:02:53;8.50;;;6.27;;
11453;SDS011;5783;55.174;61.310;2022-12-16T02:05:24;8.83;;;6.30;;
11453;SDS011;5783;55.174;61.310;2022-12-16T02:16:26;8.87;;;6.40;;
11453;SDS011;5783;55.174;61.310;2022-12-16T02:22:26;10.13;;;6.90;;
11453;SDS011;5783;55.174;61.310;2022-12-16T02:40:00;8.60;;;6.33;;
11453;SDS011;5783;55.174;61.310;2022-12-16T02:45:24;9.73;;;6.90;;
11453;SDS011;5783;55.174;61.310;2022-12-16T02:47:54;7.93;;;6.23;;
11453;SDS011;5783;55.174;61.310;2022-12-16T02:53:32;9.17;;;6.57;;
11453;SDS011;5783;55.174;61.310;2022-12-16T03:08:01;9.33;;;6.63;;
11453;SDS011;5783;55.174;61.310;2022-12-16T03:10:51;8.43;;;6.87;;
11453;SDS011;5783;55.174;61.310;2022-12-16T03:14:16;9.03;;;6.60;;
11453;SDS011;5783;55.174;61.310;2022-12-16T03:16:13;9.87;;;6.50;;
11453;SDS011;5783;55.174;61.310;2022-12-16T03:18:45;9.20;;;5.93;;
11453;SDS011;5783;55.174;61.310;2022-12-16T03:21:16;7.43;;;6.03;;
11453;SDS011;5783;55.174;61.310;2022-12-16T03:23:50;7.93;;;6.30;;
11453;SDS011;5783;55.174;61.310;2022-12-16T03:38:35;7.87;;;5.87;;
11453;SDS011;5783;55.174;61.310;2022-12-16T03:41:05;9.10;;;6.33;;
11453;SDS011;5783;55.174;61.310;2022-12-16T03:43:36;9.67;;;6.57;;
11453;SDS011;5783;55.174;61.310;2022-12-16T03:46:06;7.80;;;6.00;;
11453;SDS011;5783;55.174;61.310;2022-12-16T03:48:43;9.63;;;6.50;;
11453;SDS011;5783;55.174;61.310;2022-12-16T03:51:27;9.47;;;6.20;;
11453;SDS011;5783;55.174;61.310;2022-12-16T03:53:57;9.93;;;6.47;;
11453;SDS011;5783;55.174;61.310;2022-12-16T03:56:26;7.90;;;6.10;;
11453;SDS011;5783;55.174;61.310;2022-12-16T03:58:55;8.63;;;6.33;;
11453;SDS011;5783;55.174;61.310;2022-12-16T04:01:24;8.10;;;6.03;;
11453;SDS011;5783;55.174;61.310;2022-12-16T04:03:54;8.63;;;6.40;;
11453;SDS011;5783;55.174;61.310;2022-12-16T04:06:23;9.97;;;6.53;;
11453;SDS011;5783;55.174;61.310;2022-12-16T04:08:52;8.90;;;6.33;;
11453;SDS011;5783;55.174;61.310;2022-12-16T04:11:21;9.47;;;6.10;;
11453;SDS011;5783;55.174;61.310;2022-12-16T04:14:10;8.57;;;6.17;;
11453;SDS011;5783;55.174;61.310;2022-12-16T04:16:58;8.67;;;6.20;;
11453;SDS011;5783;55.174;61.310;2022-12-16T04:19:47;9.07;;;6.73;;
11453;SDS011;5783;55.174;61.310;2022-12-16T04:28:16;8.30;;;6.17;;
11453;SDS011;5783;55.174;61.310;2022-12-16T04:30:46;9.30;;;6.63;;
11453;SDS011;5783;55.174;61.310;2022-12-16T04:33:15;9.93;;;7.00;;
11453;SDS011;5783;55.174;61.310;2022-12-16T04:36:04;9.43;;;6.93;;
11453;SDS011;5783;55.174;61.310;2022-12-16T04:38:53;8.40;;;6.63;;
11453;SDS011;5783;55.174;61.310;2022-12-16T04:41:41;11.50;;;8.33;;
11453;SDS011;5783;55.174;61.310;2022-12-16T04:44:29;12.13;;;8.40;;
11453;SDS011;5783;55.174;61.310;2022-12-16T04:47:18;11.63;;;7.70;;
11453;SDS011;5783;55.174;61.310;2022-12-16T04:50:07;11.10;;;8.00;;
11453;SDS011;5783;55.174;61.310;2022-12-16T04:52:55;10.47;;;7.93;;
11453;SDS011;5783;55.174;61.310;2022-12-16T04:55:44;11.43;;;8.17;;
11453;SDS011;5783;55.174;61.310;2022-12-16T04:58:32;10.73;;;7.73;;
11453;SDS011;5783;55.174;61.310;2022-12-16T05:01:21;11.43;;;7.90;;
11453;SDS011;5783;55.174;61.310;2022-12-16T05:04:09;11.97;;;8.37;;
11453;SDS011;5783;55.174;61.310;2022-12-16T05:06:58;13.37;;;8.83;;
11453;SDS011;5783;55.174;61.310;2022-12-16T05:09:46;11.90;;;8.77;;
11453;SDS011;5783;55.174;61.310;2022-12-16T05:12:35;12.00;;;8.60;;
11453;SDS011;5783;55.174;61.310;2022-12-16T05:15:23;11.43;;;8.53;;
11453;SDS011;5783;55.174;61.310;2022-12-16T05:18:12;13.80;;;9.37;;
11453;SDS011;5783;55.174;61.310;2022-12-16T05:21:02;13.20;;;9.40;;
11453;SDS011;5783;55.174;61.310;2022-12-16T05:23:51;12.20;;;8.97;;
11453;SDS011;5783;55.174;61.310;2022-12-16T05:26:39;14.13;;;9.60;;
11453;SDS011;5783;55.174;61.310;2022-12-16T05:29:28;12.90;;;8.90;;
11453;SDS011;5783;55.174;61.310;2022-12-16T05:32:16;14.10;;;9.17;;
11453;SDS011;5783;55.174;61.310;2022-12-16T05:35:05;13.67;;;9.30;;
11453;SDS011;5783;55.174;61.310;2022-12-16T05:37:53;16.53;;;10.00;;
11453;SDS011;5783;55.174;61.310;2022-12-16T05:40:42;14.83;;;10.03;;
11453;SDS011;5783;55.174;61.310;2022-12-16T05:43:31;11.80;;;9.07;;
11453;SDS011;5783;55.174;61.310;2022-12-16T05:46:20;14.67;;;10.43;;
11453;SDS011;5783;55.174;61.310;2022-12-16T05:49:08;13.00;;;9.73;;
11453;SDS011;5783;55.174;61.310;2022-12-16T05:51:56;16.03;;;10.60;;
11453;SDS011;5783;55.174;61.310;2022-12-16T05:54:45;15.63;;;11.17;;
11453;SDS011;5783;55.174;61.310;2022-12-16T05:57:35;14.97;;;11.20;;
11453;SDS011;5783;55.174;61.310;2022-12-16T06:00:24;19.67;;;12.77;;
11453;SDS011;5783;55.174;61.310;2022-12-16T06:03:12;17.67;;;12.93;;
11453;SDS011;5783;55.174;61.310;2022-12-16T06:06:01;19.03;;;13.30;;
11453;SDS011;5783;55.174;61.310;2022-12-16T06:08:50;19.73;;;15.07;;
11453;SDS011;5783;55.174;61.310;2022-12-16T06:11:39;21.33;;;14.13;;
11453;SDS011;5783;55.174;61.310;2022-12-16T06:14:27;21.13;;;13.57;;
11453;SDS011;5783;55.174;61.310;2022-12-16T06:17:16;19.77;;;13.17;;
11453;SDS011;5783;55.174;61.310;2022-12-16T06:20:04;17.40;;;12.70;;
11453;SDS011;5783;55.174;61.310;2022-12-16T06:22:53;20.67;;;14.07;;
11453;SDS011;5783;55.174;61.310;2022-12-16T06:25:42;20.07;;;14.33;;
11453;SDS011;5783;55.174;61.310;2022-12-16T06:28:30;20.03;;;14.13;;
11453;SDS011;5783;55.174;61.310;2022-12-16T06:31:19;17.47;;;13.57;;
11453;SDS011;5783;55.174;61.310;2022-12-16T06:34:07;19.93;;;13.47;;
11453;SDS011;5783;55.174;61.310;2022-12-16T06:36:56;18.87;;;13.40;;
11453;SDS011;5783;55.174;61.310;2022-12-16T06:39:44;20.17;;;13.73;;
11453;SDS011;5783;55.174;61.310;2022-12-16T06:42:33;18.33;;;13.43;;
11453;SDS011;5783;55.174;61.310;2022-12-16T06:45:21;20.47;;;13.93;;
11453;SDS011;5783;55.174;61.310;2022-12-16T06:48:10;20.13;;;12.97;;
11453;SDS011;5783;55.174;61.310;2022-12-16T06:50:58;21.13;;;13.20;;
11453;SDS011;5783;55.174;61.310;2022-12-16T06:53:47;18.37;;;13.13;;
11453;SDS011;5783;55.174;61.310;2022-12-16T06:56:35;19.70;;;12.83;;
11453;SDS011;5783;55.174;61.310;2022-12-16T06:59:24;20.10;;;12.93;;
11453;SDS011;5783;55.174;61.310;2022-12-16T07:02:12;19.53;;;13.70;;
11453;SDS011;5783;55.174;61.310;2022-12-16T07:05:03;19.43;;;13.60;;
11453;SDS011;5783;55.174;61.310;2022-12-16T07:07:51;25.93;;;17.90;;
11453;SDS011;5783;55.174;61.310;2022-12-16T07:10:40;27.37;;;18.97;;
11453;SDS011;5783;55.174;61.310;2022-12-16T07:13:28;27.00;;;20.77;;
11453;SDS011;5783;55.174;61.310;2022-12-16T07:16:17;29.93;;;22.30;;
11453;SDS011;5783;55.174;61.310;2022-12-16T07:19:05;30.33;;;20.60;;
11453;SDS011;5783;55.174;61.310;2022-12-16T07:21:54;25.10;;;17.70;;
11453;SDS011;5783;55.174;61.310;2022-12-16T07:24:42;22.67;;;16.00;;
11453;SDS011;5783;55.174;61.310;2022-12-16T07:27:31;22.87;;;17.17;;
11453;SDS011;5783;55.174;61.310;2022-12-16T07:30:19;22.90;;;16.17;;
11453;SDS011;5783;55.174;61.310;2022-12-16T07:33:08;24.73;;;15.23;;
11453;SDS011;5783;55.174;61.310;2022-12-16T07:35:56;22.80;;;15.40;;
11453;SDS011;5783;55.174;61.310;2022-12-16T07:38:45;21.50;;;14.13;;
11453;SDS011;5783;55.174;61.310;2022-12-16T07:41:33;23.87;;;14.67;;
11453;SDS011;5783;55.174;61.310;2022-12-16T07:44:22;23.03;;;15.13;;
11453;SDS011;5783;55.174;61.310;2022-12-16T07:47:10;20.73;;;14.50;;
11453;SDS011;5783;55.174;61.310;2022-12-16T07:49:59;20.50;;;13.73;;
11453;SDS011;5783;55.174;61.310;2022-12-16T07:55:55;23.90;;;15.03;;
11453;SDS011;5783;55.174;61.310;2022-12-16T07:58:44;20.23;;;14.10;;
11453;SDS011;5783;55.174;61.310;2022-12-16T08:01:32;21.47;;;13.83;;
11453;SDS011;5783;55.174;61.310;2022-12-16T08:04:21;21.83;;;12.83;;
11453;SDS011;5783;55.174;61.310;2022-12-16T08:07:09;21.40;;;13.17;;
11453;SDS011;5783;55.174;61.310;2022-12-16T08:09:58;19.27;;;12.13;;
11453;SDS011;5783;55.174;61.310;2022-12-16T08:12:46;19.30;;;12.63;;
11453;SDS011;5783;55.174;61.310;2022-12-16T08:15:35;17.33;;;11.97;;
11453;SDS011;5783;55.174;61.310;2022-12-16T08:18:23;17.60;;;11.70;;
11453;SDS011;5783;55.174;61.310;2022-12-16T08:21:12;17.50;;;11.43;;
11453;SDS011;5783;55.174;61.310;2022-12-16T08:24:00;18.10;;;12.10;;
11453;SDS011;5783;55.174;61.310;2022-12-16T08:26:49;16.37;;;11.37;;
11453;SDS011;5783;55.174;61.310;2022-12-16T08:29:37;18.97;;;12.50;;
11453;SDS011;5783;55.174;61.310;2022-12-16T08:32:26;17.47;;;11.47;;
11453;SDS011;5783;55.174;61.310;2022-12-16T08:35:14;16.77;;;10.93;;
11453;SDS011;5783;55.174;61.310;2022-12-16T08:38:03;16.50;;;10.43;;
11453;SDS011;5783;55.174;61.310;2022-12-16T08:40:53;17.53;;;10.57;;
11453;SDS011;5783;55.174;61.310;2022-12-16T08:43:42;17.13;;;10.70;;
11453;SDS011;5783;55.174;61.310;2022-12-16T08:46:30;17.00;;;10.83;;
11453;SDS011;5783;55.174;61.310;2022-12-16T08:49:18;15.77;;;10.43;;
11453;SDS011;5783;55.174;61.310;2022-12-16T08:52:07;18.30;;;11.07;;
11453;SDS011;5783;55.174;61.310;2022-12-16T08:54:55;15.33;;;9.90;;
11453;SDS011;5783;55.174;61.310;2022-12-16T08:57:51;16.40;;;10.17;;
11453;SDS011;5783;55.174;61.310;2022-12-16T09:00:53;16.03;;;10.27;;
11453;SDS011;5783;55.174;61.310;2022-12-16T09:03:42;15.53;;;10.57;;
11453;SDS011;5783;55.174;61.310;2022-12-16T09:06:30;15.53;;;10.50;;
11453;SDS011;5783;55.174;61.310;2022-12-16T09:09:19;15.73;;;10.40;;
11453;SDS011;5783;55.174;61.310;2022-12-16T09:12:07;17.63;;;11.57;;
11453;SDS011;5783;55.174;61.310;2022-12-16T09:14:56;16.93;;;10.60;;
11453;SDS011;5783;55.174;61.310;2022-12-16T09:17:44;14.27;;;10.13;;
11453;SDS011;5783;55.174;61.310;2022-12-16T09:20:34;14.87;;;9.73;;
11453;SDS011;5783;55.174;61.310;2022-12-16T09:23:23;16.00;;;9.70;;
11453;SDS011;5783;55.174;61.310;2022-12-16T09:26:11;17.33;;;10.60;;
11453;SDS011;5783;55.174;61.310;2022-12-16T09:29:00;15.97;;;10.20;;
11453;SDS011;5783;55.174;61.310;2022-12-16T09:31:49;15.30;;;10.33;;
11453;SDS011;5783;55.174;61.310;2022-12-16T09:34:37;14.70;;;9.90;;
11453;SDS011;5783;55.174;61.310;2022-12-16T09:37:26;16.63;;;10.87;;
11453;SDS011;5783;55.174;61.310;2022-12-16T09:40:15;18.30;;;10.00;;
11453;SDS011;5783;55.174;61.310;2022-12-16T09:56:02;13.10;;;8.47;;
11453;SDS011;5783;55.174;61.310;2022-12-16T09:58:52;15.40;;;9.10;;
11453;SDS011;5783;55.174;61.310;2022-12-16T10:01:43;15.47;;;9.40;;
11453;SDS011;5783;55.174;61.310;2022-12-16T10:04:32;14.53;;;9.00;;
11453;SDS011;5783;55.174;61.310;2022-12-16T10:07:20;14.97;;;9.10;;
11453;SDS011;5783;55.174;61.310;2022-12-16T10:29:42;13.97;;;9.40;;
11453;SDS011;5783;55.174;61.310;2022-12-16T10:38:50;11.80;;;8.03;;
11453;SDS011;5783;55.174;61.310;2022-12-16T10:41:41;15.23;;;8.57;;
11453;SDS011;5783;55.174;61.310;2022-12-16T10:47:41;11.63;;;7.13;;
11453;SDS011;5783;55.174;61.310;2022-12-16T10:50:30;12.30;;;7.00;;
11453;SDS011;5783;55.174;61.310;2022-12-16T10:59:03;10.27;;;7.10;;
11453;SDS011;5783;55.174;61.310;2022-12-16T11:05:31;10.63;;;7.60;;
11453;SDS011;5783;55.174;61.310;2022-12-16T11:07:55;9.97;;;7.00;;
11453;SDS011;5783;55.174;61.310;2022-12-16T11:10:43;12.17;;;7.57;;
11453;SDS011;5783;55.174;61.310;2022-12-16T11:16:41;11.67;;;7.60;;
11453;SDS011;5783;55.174;61.310;2022-12-16T11:19:30;12.53;;;8.03;;
11453;SDS011;5783;55.174;61.310;2022-12-16T11:22:19;14.27;;;8.70;;
11453;SDS011;5783;55.174;61.310;2022-12-16T11:28:17;12.90;;;8.77;;
11453;SDS011;5783;55.174;61.310;2022-12-16T11:31:08;16.90;;;8.80;;
11453;SDS011;5783;55.174;61.310;2022-12-16T11:33:57;13.93;;;9.00;;
11453;SDS011;5783;55.174;61.310;2022-12-16T11:36:49;16.30;;;9.67;;
11453;SDS011;5783;55.174;61.310;2022-12-16T11:39:38;15.70;;;9.70;;
11453;SDS011;5783;55.174;61.310;2022-12-16T11:42:27;19.27;;;10.87;;
11453;SDS011;5783;55.174;61.310;2022-12-16T11:45:18;21.03;;;11.53;;
11453;SDS011;5783;55.174;61.310;2022-12-16T11:51:17;25.63;;;12.87;;
11453;SDS011;5783;55.174;61.310;2022-12-16T11:54:10;19.97;;;12.03;;
11453;SDS011;5783;55.174;61.310;2022-12-16T11:56:59;24.63;;;12.50;;
11453;SDS011;5783;55.174;61.310;2022-12-16T11:59:51;22.10;;;12.77;;
11453;SDS011;5783;55.174;61.310;2022-12-16T12:09:37;18.23;;;12.00;;
11453;SDS011;5783;55.174;61.310;2022-12-16T12:25:09;28.97;;;14.27;;
11453;SDS011;5783;55.174;61.310;2022-12-16T12:37:46;21.97;;;12.63;;
11453;SDS011;5783;55.174;61.310;2022-12-16T12:44:25;21.70;;;13.40;;
11453;SDS011;5783;55.174;61.310;2022-12-16T12:47:31;20.40;;;11.87;;
11453;SDS011;5783;55.174;61.310;2022-12-16T12:50:23;22.67;;;12.90;;
11453;SDS011;5783;55.174;61.310;2022-12-16T13:06:25;18.93;;;12.10;;
11453;SDS011;5783;55.174;61.310;2022-12-16T13:12:24;18.50;;;12.30;;
11453;SDS011;5783;55.174;61.310;2022-12-16T13:27:51;18.90;;;12.90;;
11453;SDS011;5783;55.174;61.310;2022-12-16T13:30:46;21.73;;;13.30;;
11453;SDS011;5783;55.174;61.310;2022-12-16T13:33:32;20.47;;;13.30;;
11453;SDS011;5783;55.174;61.310;2022-12-16T13:36:23;19.47;;;13.50;;
11453;SDS011;5783;55.174;61.310;2022-12-16T13:54:58;22.07;;;14.57;;
11453;SDS011;5783;55.174;61.310;2022-12-16T13:58:00;21.27;;;14.07;;
11453;SDS011;5783;55.174;61.310;2022-12-16T14:00:40;21.33;;;14.40;;
11453;SDS011;5783;55.174;61.310;2022-12-16T14:06:39;21.73;;;13.60;;
11453;SDS011;5783;55.174;61.310;2022-12-16T14:35:18;20.00;;;10.83;;
11453;SDS011;5783;55.174;61.310;2022-12-16T14:41:18;16.53;;;11.07;;
11453;SDS011;5783;55.174;61.310;2022-12-16T14:44:26;20.30;;;11.03;;
11453;SDS011;5783;55.174;61.310;2022-12-16T14:47:16;17.53;;;11.63;;
11453;SDS011;5783;55.174;61.310;2022-12-16T14:53:16;18.87;;;13.00;;
11453;SDS011;5783;55.174;61.310;2022-12-16T14:59:16;23.87;;;13.17;;
11453;SDS011;5783;55.174;61.310;2022-12-16T15:05:15;20.33;;;13.33;;
11453;SDS011;5783;55.174;61.310;2022-12-16T15:08:04;18.60;;;13.20;;
11453;SDS011;5783;55.174;61.310;2022-12-16T15:10:55;25.00;;;13.57;;
11453;SDS011;5783;55.174;61.310;2022-12-16T15:13:45;17.87;;;12.13;;
11453;SDS011;5783;55.174;61.310;2022-12-16T15:16:36;18.43;;;11.83;;
11453;SDS011;5783;55.174;61.310;2022-12-16T15:19:25;19.33;;;12.27;;
11453;SDS011;5783;55.174;61.310;2022-12-16T15:22:14;17.87;;;12.57;;
11453;SDS011;5783;55.174;61.310;2022-12-16T15:25:03;21.63;;;12.93;;
11453;SDS011;5783;55.174;61.310;2022-12-16T15:27:54;18.83;;;12.47;;
11453;SDS011;5783;55.174;61.310;2022-12-16T15:30:44;21.70;;;12.17;;
11453;SDS011;5783;55.174;61.310;2022-12-16T15:33:35;17.03;;;11.13;;
11453;SDS011;5783;55.174;61.310;2022-12-16T15:42:27;13.37;;;10.37;;
11453;SDS011;5783;55.174;61.310;2022-12-16T15:48:27;14.17;;;9.37;;
11453;SDS011;5783;55.174;61.310;2022-12-16T15:58:14;11.27;;;8.23;;
11453;SDS011;5783;55.174;61.310;2022-12-16T16:04:30;13.00;;;7.77;;
11453;SDS011;5783;55.174;61.310;2022-12-16T16:10:27;11.47;;;7.10;;
11453;SDS011;5783;55.174;61.310;2022-12-16T16:13:15;12.87;;;7.40;;
11453;SDS011;5783;55.174;61.310;2022-12-16T16:16:04;11.20;;;6.83;;
11453;SDS011;5783;55.174;61.310;2022-12-16T16:18:52;9.80;;;6.20;;
11453;SDS011;5783;55.174;61.310;2022-12-16T16:21:41;10.73;;;6.37;;
11453;SDS011;5783;55.174;61.310;2022-12-16T16:24:29;9.30;;;6.60;;
11453;SDS011;5783;55.174;61.310;2022-12-16T16:27:18;10.83;;;6.93;;
11453;SDS011;5783;55.174;61.310;2022-12-16T16:30:08;7.60;;;5.87;;
11453;SDS011;5783;55.174;61.310;2022-12-16T16:32:57;9.43;;;6.47;;
11453;SDS011;5783;55.174;61.310;2022-12-16T16:35:45;10.40;;;6.80;;
11453;SDS011;5783;55.174;61.310;2022-12-16T16:38:34;9.60;;;6.77;;
11453;SDS011;5783;55.174;61.310;2022-12-16T16:41:22;8.17;;;6.17;;
11453;SDS011;5783;55.174;61.310;2022-12-16T16:44:11;11.37;;;7.20;;
11453;SDS011;5783;55.174;61.310;2022-12-16T16:46:59;11.30;;;6.93;;
11453;SDS011;5783;55.174;61.310;2022-12-16T16:49:48;9.70;;;6.43;;
11453;SDS011;5783;55.174;61.310;2022-12-16T16:52:36;9.07;;;6.60;;
11453;SDS011;5783;55.174;61.310;2022-12-16T16:55:25;9.07;;;6.90;;
11453;SDS011;5783;55.174;61.310;2022-12-16T16:58:15;8.10;;;6.17;;
11453;SDS011;5783;55.174;61.310;2022-12-16T17:01:23;9.57;;;6.30;;
11453;SDS011;5783;55.174;61.310;2022-12-16T17:04:11;10.43;;;6.63;;
11453;SDS011;5783;55.174;61.310;2022-12-16T17:06:59;8.93;;;6.30;;
11453;SDS011;5783;55.174;61.310;2022-12-16T17:09:48;9.07;;;6.50;;
11453;SDS011;5783;55.174;61.310;2022-12-16T17:12:36;8.23;;;6.17;;
11453;SDS011;5783;55.174;61.310;2022-12-16T17:18:35;11.07;;;7.17;;
11453;SDS011;5783;55.174;61.310;2022-12-16T17:21:24;8.93;;;7.10;;
11453;SDS011;5783;55.174;61.310;2022-12-16T17:24:12;9.87;;;7.67;;
11453;SDS011;5783;55.174;61.310;2022-12-16T17:30:46;10.47;;;8.03;;
11453;SDS011;5783;55.174;61.310;2022-12-16T17:33:20;13.57;;;8.90;;
11453;SDS011;5783;55.174;61.310;2022-12-16T17:39:18;13.00;;;8.90;;
11453;SDS011;5783;55.174;61.310;2022-12-16T17:42:06;15.20;;;8.93;;
11453;SDS011;5783;55.174;61.310;2022-12-16T17:44:55;15.00;;;10.50;;
11453;SDS011;5783;55.174;61.310;2022-12-16T17:47:43;15.63;;;10.70;;
11453;SDS011;5783;55.174;61.310;2022-12-16T17:50:32;17.27;;;11.73;;
11453;SDS011;5783;55.174;61.310;2022-12-16T17:53:21;17.37;;;11.83;;
11453;SDS011;5783;55.174;61.310;2022-12-16T17:56:09;18.37;;;11.67;;
11453;SDS011;5783;55.174;61.310;2022-12-16T17:58:58;17.33;;;11.83;;
11453;SDS011;5783;55.174;61.310;2022-12-16T18:01:46;18.67;;;11.93;;
11453;SDS011;5783;55.174;61.310;2022-12-16T18:04:35;17.83;;;12.20;;
11453;SDS011;5783;55.174;61.310;2022-12-16T18:07:23;18.83;;;12.33;;
11453;SDS011;5783;55.174;61.310;2022-12-16T18:10:12;21.40;;;12.53;;
11453;SDS011;5783;55.174;61.310;2022-12-16T18:13:00;18.93;;;12.57;;
11453;SDS011;5783;55.174;61.310;2022-12-16T18:18:59;18.50;;;12.93;;
11453;SDS011;5783;55.174;61.310;2022-12-16T18:21:47;19.87;;;13.63;;
11453;SDS011;5783;55.174;61.310;2022-12-16T18:24:38;19.43;;;12.83;;
11453;SDS011;5783;55.174;61.310;2022-12-16T18:27:29;17.50;;;12.70;;
11453;SDS011;5783;55.174;61.310;2022-12-16T18:30:17;15.40;;;11.37;;
11453;SDS011;5783;55.174;61.310;2022-12-16T18:33:06;19.87;;;13.27;;
11453;SDS011;5783;55.174;61.310;2022-12-16T18:35:55;17.57;;;12.30;;
11453;SDS011;5783;55.174;61.310;2022-12-16T18:38:43;15.10;;;12.17;;
11453;SDS011;5783;55.174;61.310;2022-12-16T18:44:48;17.03;;;11.40;;
11453;SDS011;5783;55.174;61.310;2022-12-16T18:47:57;18.63;;;11.70;;
11453;SDS011;5783;55.174;61.310;2022-12-16T18:53:56;16.50;;;11.10;;
11453;SDS011;5783;55.174;61.310;2022-12-16T18:59:35;14.00;;;10.47;;
11453;SDS011;5783;55.174;61.310;2022-12-16T19:02:24;15.97;;;10.23;;
11453;SDS011;5783;55.174;61.310;2022-12-16T19:05:12;16.83;;;10.83;;
11453;SDS011;5783;55.174;61.310;2022-12-16T19:08:01;14.30;;;10.27;;
11453;SDS011;5783;55.174;61.310;2022-12-16T19:10:54;14.90;;;9.53;;
11453;SDS011;5783;55.174;61.310;2022-12-16T19:13:40;14.67;;;9.83;;
11453;SDS011;5783;55.174;61.310;2022-12-16T19:16:29;15.30;;;9.53;;
11453;SDS011;5783;55.174;61.310;2022-12-16T19:19:17;11.20;;;8.70;;
11453;SDS011;5783;55.174;61.310;2022-12-16T19:22:06;13.57;;;9.20;;
11453;SDS011;5783;55.174;61.310;2022-12-16T19:24:54;11.80;;;7.83;;
11453;SDS011;5783;55.174;61.310;2022-12-16T19:27:43;13.40;;;8.83;;
11453;SDS011;5783;55.174;61.310;2022-12-16T19:30:31;13.73;;;8.73;;
11453;SDS011;5783;55.174;61.310;2022-12-16T19:33:20;10.40;;;7.60;;
11453;SDS011;5783;55.174;61.310;2022-12-16T19:36:08;12.13;;;8.20;;
11453;SDS011;5783;55.174;61.310;2022-12-16T19:38:57;11.20;;;8.07;;
11453;SDS011;5783;55.174;61.310;2022-12-16T19:41:45;10.83;;;7.73;;
11453;SDS011;5783;55.174;61.310;2022-12-16T19:44:34;10.37;;;6.90;;
11453;SDS011;5783;55.174;61.310;2022-12-16T19:47:22;8.53;;;6.60;;
11453;SDS011;5783;55.174;61.310;2022-12-16T19:50:11;8.70;;;6.70;;
11453;SDS011;5783;55.174;61.310;2022-12-16T19:52:59;9.27;;;6.50;;
11453;SDS011;5783;55.174;61.310;2022-12-16T19:55:52;8.63;;;6.47;;
11453;SDS011;5783;55.174;61.310;2022-12-16T19:58:57;10.73;;;6.60;;
11453;SDS011;5783;55.174;61.310;2022-12-16T20:01:45;7.77;;;5.70;;
11453;SDS011;5783;55.174;61.310;2022-12-16T20:04:34;7.47;;;5.60;;
11453;SDS011;5783;55.174;61.310;2022-12-16T20:07:22;8.40;;;6.20;;
11453;SDS011;5783;55.174;61.310;2022-12-16T20:10:11;7.77;;;6.03;;
11453;SDS011;5783;55.174;61.310;2022-12-16T20:12:59;7.73;;;5.63;;
11453;SDS011;5783;55.174;61.310;2022-12-16T20:15:49;9.83;;;6.40;;
11453;SDS011;5783;55.174;61.310;2022-12-16T20:18:38;9.67;;;6.83;;
11453;SDS011;5783;55.174;61.310;2022-12-16T20:21:26;8.00;;;5.90;;
11453;SDS011;5783;55.174;61.310;2022-12-16T20:24:15;7.77;;;5.83;;
11453;SDS011;5783;55.174;61.310;2022-12-16T20:27:03;8.70;;;6.40;;
11453;SDS011;5783;55.174;61.310;2022-12-16T20:29:52;8.67;;;6.30;;
11453;SDS011;5783;55.174;61.310;2022-12-16T20:33:00;9.33;;;6.23;;
11453;SDS011;5783;55.174;61.310;2022-12-16T20:38:56;9.77;;;6.40;;
11453;SDS011;5783;55.174;61.310;2022-12-16T20:41:45;9.97;;;6.10;;
11453;SDS011;5783;55.174;61.310;2022-12-16T20:44:33;8.23;;;6.13;;
11453;SDS011;5783;55.174;61.310;2022-12-16T20:47:21;9.33;;;5.87;;
11453;SDS011;5783;55.174;61.310;2022-12-16T20:50:10;9.37;;;6.17;;
11453;SDS011;5783;55.174;61.310;2022-12-16T20:52:58;7.57;;;5.77;;
11453;SDS011;5783;55.174;61.310;2022-12-16T20:55:47;8.30;;;5.93;;
11453;SDS011;5783;55.174;61.310;2022-12-16T20:58:35;8.80;;;6.27;;
11453;SDS011;5783;55.174;61.310;2022-12-16T21:01:24;7.53;;;5.87;;
11453;SDS011;5783;55.174;61.310;2022-12-16T21:04:12;8.20;;;5.90;;
11453;SDS011;5783;55.174;61.310;2022-12-16T21:07:01;7.97;;;5.83;;
11453;SDS011;5783;55.174;61.310;2022-12-16T21:09:49;6.67;;;5.20;;
11453;SDS011;5783;55.174;61.310;2022-12-16T21:12:38;8.27;;;5.80;;
11453;SDS011;5783;55.174;61.310;2022-12-16T21:15:26;6.97;;;5.80;;
11453;SDS011;5783;55.174;61.310;2022-12-16T21:18:15;8.10;;;5.70;;
11453;SDS011;5783;55.174;61.310;2022-12-16T21:21:03;7.90;;;5.37;;
11453;SDS011;5783;55.174;61.310;2022-12-16T21:23:52;8.33;;;5.60;;
11453;SDS011;5783;55.174;61.310;2022-12-16T21:26:40;5.93;;;4.70;;